الصفحة الرئيسية
METAR-TAF:

METAR-TAF

مطار :

Mount Gambier, أستراليا

دائرة عرض: 37-44-44S, خط طول: 140-47-07E, ارتفاع: 65 متر

مراقبة الطقس الحالي

تاريخ ووقت الإصدار 29 دقيقة قبل الساعة 03:00UTC
ريح 11 عقدة من الشمال/الشمال الغربي
درجة الحرارة 17°درجة مئوية
الرطوبة 77%
ضغط 1021 hPa
الرؤية 10 كم أو أكثر
غيوم متفرقة على ارتفاع 2600 قدم
غيوم متفرقة على ارتفاع 3300 قدم

METAR: YMTG 210300Z AUTO 33011KT 9999 // SCT026 SCT033 17/13 Q1021

زمن: 12:59 (03:29 UTC)


TAF: مفقودة

أرصاد الطقس والتوقعات من أكثر من 4000 مطار (تقارير الطقس للمطار METAR والتنبؤ بالطقس بالمطارTAF).

المحطات المتاحة هي النقط الصفراء والحمراء على الخريطة.

حرك المؤشر فوق النقطة لمعرفة اسم المحطة.

ثم انقر لمعرفة أرصاد وتوقعات الطقس.

لتغيير الخارطة: اضغط على الأزرار الخضراء مع رمز الصليب الأسود للتكبير. على الزر الأخضر مع شرطة للتصغير، أو على الأسهم الخضراء للخرائط المجاورة.


METAR-TAF: